^^
Datos históricos de la estación: Murcia-Puente Tocinos
 
Diario Informe para Diciembre 02, 2022 Unidades:  Métrico    Ingés   Ambas
Diario Semanal Mensual Anual
  Actual: Máxima: Mínima: Promedio:
Temperatura: 12.7 °C 15.3 °C 11.7 °C 13 °C
Punto de rocio: 7.4 °C 10.3 °C 7.2 °C 8.6 °C
Humedad: 70% 88% 60% 75%
Velocidad viento: 8.7km/h 10.3km/h 0km/h 5.6km/h
Racha viento: 13km/h 24.1km/h - -
VientoNO - - Oeste
Presión: 1009.4 hPa 1013.1 hPa 1009.2 hPa -
Precipitación: 0.2 mm      
 
 
Tabla de datos para Diciembre 02, 2022
Hora Temperatura Punto de rocio Presión Viento Velocidad viento Racha viento Humedad Intensidad lluvia(por hora) Nubes
00:04 12.1 °C 10.2 °C 1013.1 hPa OSO 4.4 km/h 5 km/h 88% 0.0 mm
00:09 12.2 °C 10.2 °C 1013.1 hPa SO 3.9 km/h 7.6 km/h 88% 0.0 mm
00:14 12.2 °C 10.3 °C 1013.1 hPa SSE 3.9 km/h 9.5 km/h 88% 0.0 mm
00:19 12.2 °C 10.3 °C 1013.1 hPa Sur 3.9 km/h 9.3 km/h 88% 0.0 mm
00:24 12.2 °C 10.3 °C 1013.1 hPa Sur 5.4 km/h 11.1 km/h 88% 0.0 mm
00:29 12.2 °C 10.3 °C 1013.1 hPa SSO 6.9 km/h 11.1 km/h 88% 0.0 mm
00:34 12.2 °C 10.3 °C 1013.1 hPa SO 6.9 km/h 10 km/h 88% 0.0 mm
00:39 12.2 °C 10.3 °C 1013.0 hPa SO 6.9 km/h 8.7 km/h 88% 0.0 mm
00:44 12.2 °C 10.3 °C 1013.0 hPa SO 5.9 km/h 9.3 km/h 88% 0.0 mm
00:49 12.2 °C 10.3 °C 1013.0 hPa OSO 5 km/h 9.3 km/h 88% 0.0 mm
00:54 12.1 °C 10.2 °C 1012.9 hPa SO 5.4 km/h 9.5 km/h 88% 0.0 mm
00:59 12.1 °C 10.2 °C 1012.9 hPa SO 5.8 km/h 9.5 km/h 88% 0.0 mm
01:04 12.1 °C 10.2 °C 1012.9 hPa SO 5.8 km/h 9.5 km/h 88% 0.0 mm
01:09 12.1 °C 10.2 °C 1012.7 hPa SO 5.8 km/h 8.4 km/h 88% 0.0 mm
01:14 12.1 °C 10.1 °C 1012.7 hPa SO 5.8 km/h 7.4 km/h 87.7% 0.0 mm
01:19 12.1 °C 10 °C 1012.7 hPa SO 5.8 km/h 8.4 km/h 87% 0.0 mm
01:24 12.1 °C 10 °C 1012.6 hPa OSO 4.5 km/h 7.4 km/h 87% 0.0 mm
01:29 12.1 °C 10 °C 1012.6 hPa OSO 3.2 km/h 7.4 km/h 87% 0.0 mm
01:34 12.2 °C 10.1 °C 1012.6 hPa OSO 3.2 km/h 7.4 km/h 87% 0.0 mm
01:39 12.2 °C 10.1 °C 1012.4 hPa OSO 3.2 km/h 5 km/h 87% 0.0 mm
01:44 12.2 °C 10 °C 1012.4 hPa OSO 3.1 km/h 7.4 km/h 86.6% 0.0 mm
01:49 12.2 °C 10 °C 1012.4 hPa OSO 2.9 km/h 9.5 km/h 86.2% 0.0 mm
01:54 12.1 °C 9.7 °C 1012.2 hPa ONO 3.8 km/h 9.3 km/h 85.2% 0.0 mm
01:59 12.1 °C 9.6 °C 1012.2 hPa Oeste 4.7 km/h 7.6 km/h 84.5% 0.0 mm
02:04 12.1 °C 9.4 °C 1012.3 hPa SO 4.2 km/h 7.4 km/h 83.5% 0.0 mm
02:09 12.1 °C 9.3 °C 1012.3 hPa SO 3.9 km/h 3.7 km/h 83% 0.0 mm
02:14 12.2 °C 9.4 °C 1012.3 hPa SO 3.4 km/h 9.3 km/h 83.1% 0.0 mm
02:19 12.2 °C 9.6 °C 1012.3 hPa SO 2.9 km/h 5.8 km/h 84% 0.0 mm
02:24 12.2 °C 9.6 °C 1012.2 hPa SO 3.1 km/h 7.4 km/h 84% 0.0 mm
02:29 12.2 °C 9.6 °C 1012.2 hPa SO 3.2 km/h 7.4 km/h 84% 0.0 mm
02:34 12.2 °C 9.6 °C 1012.3 hPa SO 3.6 km/h 7.4 km/h 84% 0.0 mm
02:39 12.2 °C 9.5 °C 1012.3 hPa SO 3.9 km/h 5.8 km/h 84% 0.0 mm
02:44 12.2 °C 9.5 °C 1012.3 hPa SO 3.9 km/h 5.6 km/h 84% 0.0 mm
02:49 12.2 °C 9.6 °C 1012.3 hPa SO 3.9 km/h 4.7 km/h 84% 0.0 mm
02:54 12.2 °C 9.6 °C 1012.2 hPa SO 3.1 km/h 3.9 km/h 84% 0.0 mm
02:59 12.2 °C 9.6 °C 1012.2 hPa SO 2.3 km/h 5.6 km/h 84% 0.0 mm
03:04 12.2 °C 9.6 °C 1012.2 hPa SO 2.6 km/h 5 km/h 84% 0.0 mm
03:09 12.2 °C 9.6 °C 1012.2 hPa SO 2.9 km/h 5.6 km/h 84% 0.0 mm
03:14 12.2 °C 9.6 °C 1012.2 hPa SO 2.9 km/h 3.7 km/h 84% 0.0 mm
03:19 12.2 °C 9.6 °C 1012.2 hPa SO 2.9 km/h 4.7 km/h 84% 0.0 mm
03:24 12.2 °C 9.6 °C 1012.1 hPa SO 2.6 km/h 3.7 km/h 84% 0.0 mm
03:29 12.2 °C 9.6 °C 1012.1 hPa SSE 2.3 km/h 5.8 km/h 84% 0.0 mm
03:34 12.2 °C 9.6 °C 1012.3 hPa Este 2.6 km/h 5.8 km/h 84% 0.0 mm
03:39 12.2 °C 9.5 °C 1012.3 hPa NE 2.9 km/h 7.6 km/h 84% 0.0 mm
03:44 12.1 °C 9.5 °C 1012.3 hPa NE 2.9 km/h 2.3 km/h 84% 0.0 mm
03:49 12.1 °C 9.5 °C 1012.3 hPa NE 2.9 km/h 7.4 km/h 84% 0.0 mm
03:54 12.1 °C 9.5 °C 1012.1 hPa NE 3.1 km/h 7.4 km/h 84.3% 0.0 mm
03:59 11.9 °C 9.5 °C 1012.1 hPa SE 3.2 km/h 7.4 km/h 84.8% 0.0 mm
04:04 11.9 °C 9.4 °C 1012.1 hPa SSE 4 km/h 7.4 km/h 85% 0.0 mm
04:09 11.9 °C 9.4 °C 1011.9 hPa Sur 4.7 km/h 7.4 km/h 85% 0.0 mm
04:14 11.9 °C 9.4 °C 1011.9 hPa Sur 4.3 km/h 5.6 km/h 85% 0.0 mm
04:19 11.9 °C 9.4 °C 1011.9 hPa Sur 3.9 km/h 5.8 km/h 85% 0.0 mm
04:24 11.9 °C 9.5 °C 1011.8 hPa Sur 3.5 km/h 5.8 km/h 85.4% 0.0 mm
04:29 11.9 °C 9.4 °C 1011.8 hPa Sur 3.2 km/h 7.4 km/h 85% 0.0 mm
04:34 11.8 °C 9.4 °C 1011.8 hPa SO 3.2 km/h 8.4 km/h 85% 0.0 mm
04:39 11.8 °C 9.3 °C 1011.7 hPa NO 3.2 km/h 7.4 km/h 85% 0.0 mm
04:44 11.8 °C 9.3 °C 1011.7 hPa NO 3.5 km/h 5.6 km/h 85% 0.0 mm
04:49 11.7 °C 9.3 °C 1011.7 hPa NO 3.9 km/h 7.4 km/h 85% 0.0 mm
04:54 11.7 °C 9.3 °C 1011.6 hPa NO 3.5 km/h 7.4 km/h 85% 0.0 mm
04:59 11.8 °C 9.3 °C 1011.6 hPa NO 3.2 km/h 5.8 km/h 85% 0.2 mm
05:04 11.8 °C 9.3 °C 1011.6 hPa NO 3.6 km/h 7.4 km/h 85% 0.2 mm
05:09 11.8 °C 9.3 °C 1011.5 hPa ONO 3.9 km/h 5.8 km/h 85% 0.2 mm
05:14 11.8 °C 9.3 °C 1011.5 hPa ONO 3.5 km/h 7.4 km/h 85% 0.2 mm
05:19 11.8 °C 9.3 °C 1011.5 hPa Oeste 3.2 km/h 7.6 km/h 85% 0.2 mm
05:24 11.9 °C 9.4 °C 1011.3 hPa Oeste 3.9 km/h 5.8 km/h 85% 0.2 mm
05:29 11.9 °C 9.4 °C 1011.3 hPa Oeste 4.7 km/h 7.6 km/h 85% 0.2 mm
05:34 11.9 °C 9.4 °C 1011.3 hPa OSO 4.3 km/h 9.3 km/h 85% 0.2 mm
05:39 11.9 °C 9.4 °C 1011.2 hPa OSO 3.9 km/h 8.4 km/h 85% 0.2 mm
05:44 11.9 °C 9.4 °C 1011.2 hPa Oeste 3.9 km/h 7.6 km/h 85% 0.2 mm
05:49 11.9 °C 9.4 °C 1011.2 hPa ONO 3.9 km/h 9.3 km/h 84.7% 0.2 mm
05:54 11.9 °C 9.3 °C 1011.2 hPa ONO 4.3 km/h 7.4 km/h 84% 0.2 mm
05:59 11.9 °C 9.2 °C 1011.2 hPa NO 4.7 km/h 7.4 km/h 83.4% 0.2 mm
06:04 11.9 °C 9.1 °C 1011.3 hPa NNO 3.9 km/h 3.9 km/h 83% 0.0 mm
06:09 11.9 °C 9.1 °C 1011.3 hPa NNO 3.2 km/h 5 km/h 83% 0.0 mm
06:14 11.9 °C 9.1 °C 1011.3 hPa NNO 2.7 km/h 5.6 km/h 82.9% 0.0 mm
06:19 11.9 °C 8.9 °C 1011.3 hPa NNO 2.3 km/h 3.9 km/h 82% 0.0 mm
06:24 11.9 °C 8.9 °C 1011.2 hPa NO 2.6 km/h 3.9 km/h 82% 0.0 mm
06:29 11.9 °C 8.9 °C 1011.2 hPa NO 2.9 km/h 6.4 km/h 82% 0.0 mm
06:34 11.9 °C 8.9 °C 1011.2 hPa OSO 2.9 km/h 7.4 km/h 82% 0.0 mm
06:39 11.9 °C 8.9 °C 1011.1 hPa ONO 2.9 km/h 9.5 km/h 81.8% 0.0 mm
06:44 11.9 °C 8.7 °C 1011.1 hPa ONO 3 km/h 7.4 km/h 81% 0.0 mm
06:49 11.9 °C 8.7 °C 1011.2 hPa NO 3.2 km/h 7.4 km/h 81% 0.0 mm
06:54 11.9 °C 8.7 °C 1011.2 hPa ONO 3.5 km/h 7.6 km/h 80.7% 0.0 mm
06:59 11.9 °C 8.6 °C 1011.2 hPa NO 3.9 km/h 7.6 km/h 80% 0.0 mm
07:04 11.9 °C 8.6 °C 1011.2 hPa NO 4.3 km/h 8.4 km/h 80% 0.0 mm
07:09 11.9 °C 8.4 °C 1011.2 hPa ONO 4.7 km/h 11.9 km/h 79.1% 0.0 mm
07:14 11.9 °C 8.4 °C 1011.2 hPa ONO 4.8 km/h 9.3 km/h 79% 0.0 mm
07:19 12 °C 8.4 °C 1011.2 hPa ONO 5 km/h 9.3 km/h 79% 0.0 mm
07:24 12 °C 8.3 °C 1011.1 hPa ONO 4.8 km/h 8.4 km/h 78% 0.0 mm
07:29 12 °C 8.3 °C 1011.1 hPa ONO 4.7 km/h 7.6 km/h 78% 0.0 mm
07:34 12 °C 8.3 °C 1011.3 hPa ONO 3.9 km/h 7.4 km/h 78% 0.0 mm
07:39 12 °C 8.3 °C 1011.3 hPa ONO 3.2 km/h 4.7 km/h 78% 0.0 mm
07:44 12.1 °C 8.4 °C 1011.3 hPa ONO 2.7 km/h 3.9 km/h 78% 0.0 mm
07:49 12.1 °C 8.4 °C 1011.3 hPa ONO 2.3 km/h 5 km/h 78% 0.0 mm
07:54 12.1 °C 8.4 °C 1011.2 hPa ONO 2.3 km/h 5.6 km/h 78% 0.0 mm
07:59 12.1 °C 8.4 °C 1011.2 hPa ONO 2.3 km/h 4.7 km/h 78% 0.0 mm
08:04 12.1 °C 8.4 °C 1011.2 hPa ONO 2.6 km/h 5.6 km/h 78% 0.0 mm
08:09 12.1 °C 8.4 °C 1011.2 hPa ONO 2.9 km/h 4.7 km/h 78% 0.0 mm
08:14 12.1 °C 8.4 °C 1011.2 hPa ONO 2.9 km/h 5.6 km/h 78% 0.0 mm
08:19 12.1 °C 8.3 °C 1011.3 hPa ONO 2.9 km/h 7.4 km/h 77.7% 0.0 mm
08:24 12.1 °C 8.2 °C 1011.3 hPa ONO 3.4 km/h 7.4 km/h 77% 0.0 mm
08:29 12.1 °C 8.2 °C 1011.3 hPa ONO 3.9 km/h 7.6 km/h 77% 0.0 mm
08:34 12.2 °C 8.2 °C 1011.4 hPa ONO 4.3 km/h 7.4 km/h 77% 0.0 mm
08:39 12.2 °C 8.2 °C 1011.4 hPa ONO 4.7 km/h 7.4 km/h 76.6% 0.0 mm
08:44 12.2 °C 8.1 °C 1011.4 hPa ONO 4.3 km/h 7.6 km/h 76% 0.0 mm
08:49 12.2 °C 8.2 °C 1011.4 hPa ONO 3.9 km/h 7.4 km/h 76.4% 0.0 mm
08:54 12.3 °C 8.2 °C 1011.4 hPa ONO 3.9 km/h 5.6 km/h 76.2% 0.0 mm
08:59 12.3 °C 8.4 °C 1011.4 hPa Oeste 3.9 km/h 7.6 km/h 76.9% 0.0 mm
09:04 12.3 °C 8.2 °C 1011.5 hPa NO 3.5 km/h 7.4 km/h 76% 0.0 mm
09:09 12.3 °C 8.2 °C 1011.5 hPa ONO 3.2 km/h 7.4 km/h 76% 0.0 mm
09:14 12.3 °C 8.2 °C 1011.5 hPa ONO 2.7 km/h 2.3 km/h 76% 0.0 mm
09:19 12.4 °C 8.3 °C 1011.6 hPa ONO 2.3 km/h 3.9 km/h 75.9% 0.0 mm
09:24 12.4 °C 8.1 °C 1011.6 hPa ONO 1.1 km/h 5.8 km/h 75% 0.0 mm
09:29 12.4 °C 8.1 °C 1011.6 hPa Calm   6.9 km/h 75% 0.0 mm
09:34 12.4 °C 8.1 °C 1011.6 hPa Oeste 1.6 km/h 7.6 km/h 75% 0.0 mm
09:39 12.5 °C 8.1 °C 1011.6 hPa Oeste 3.2 km/h 7.4 km/h 74.6% 0.0 mm
09:44 12.6 °C 8.2 °C 1011.6 hPa ONO 3.6 km/h 9.3 km/h 74.3% 0.0 mm
09:49 12.6 °C 8.1 °C 1011.6 hPa Oeste 3.9 km/h 7.4 km/h 74% 0.0 mm
09:54 12.7 °C 8.2 °C 1011.6 hPa NO 4.3 km/h 10.3 km/h 74% 0.0 mm
09:59 12.7 °C 8.1 °C 1011.6 hPa NO 4.7 km/h 11.1 km/h 73.6% 0.0 mm
10:04 12.8 °C 8.1 °C 1011.7 hPa ONO 4.8 km/h 10 km/h 73% 0.0 mm
10:09 12.8 °C 8.1 °C 1011.7 hPa ONO 5 km/h 13 km/h 73% 0.0 mm
10:14 12.9 °C 8 °C 1011.7 hPa ONO 6 km/h 13 km/h 72.1% 0.0 mm
10:19 13 °C 8.1 °C 1011.7 hPa ONO 6.9 km/h 8.4 km/h 72% 0.0 mm
10:24 13.1 °C 8.2 °C 1011.7 hPa ONO 6.3 km/h 10 km/h 72% 0.0 mm
10:29 13.2 °C 8.3 °C 1011.7 hPa ONO 5.8 km/h 11.1 km/h 72% 0.0 mm
10:34 13.2 °C 8.3 °C 1011.7 hPa ONO 6.1 km/h 11.1 km/h 72% 0.0 mm
10:39 13.3 °C 8.3 °C 1011.7 hPa NO 6.4 km/h 11.1 km/h 71.9% 0.0 mm
10:44 13.3 °C 8.2 °C 1011.7 hPa ONO 6.7 km/h 14.8 km/h 71% 0.0 mm
10:49 13.4 °C 8.2 °C 1011.7 hPa NO 6.9 km/h 14.8 km/h 70.6% 0.0 mm
10:54 13.6 °C 8.2 °C 1011.6 hPa NO 6.9 km/h 14.8 km/h 70% 0.0 mm
10:59 13.7 °C 8.3 °C 1011.6 hPa NO 6.9 km/h 13 km/h 70% 0.0 mm
11:04 13.7 °C 8.3 °C 1011.8 hPa NO 6.7 km/h 9.5 km/h 70% 0.0 mm
11:09 13.8 °C 8.3 °C 1011.8 hPa NNO 6.4 km/h 11.1 km/h 69.2% 0.0 mm
11:14 13.9 °C 8.3 °C 1011.8 hPa NO 5.7 km/h 12.2 km/h 69% 0.0 mm
11:19 14.1 °C 8.4 °C 1011.8 hPa NO 5 km/h 13 km/h 68.8% 0.0 mm
11:24 14.2 °C 8.2 °C 1011.6 hPa NO 5.4 km/h 13.7 km/h 67.3% 0.0 mm
11:29 14.3 °C 8 °C 1011.6 hPa NNO 5.8 km/h 15.6 km/h 66% 0.0 mm
11:34 14.4 °C 8.1 °C 1011.6 hPa NO 6.1 km/h 14.8 km/h 66% 0.0 mm
11:39 14.5 °C 8 °C 1011.4 hPa North 6.4 km/h 11.1 km/h 65% 0.0 mm
11:44 14.7 °C 7.9 °C 1011.4 hPa NNO 6.4 km/h 16.7 km/h 63.8% 0.0 mm
11:49 14.7 °C 7.7 °C 1011.4 hPa NNO 6.4 km/h 22.2 km/h 62.8% 0.0 mm
11:54 14.8 °C 7.6 °C 1011.3 hPa NNO 8 km/h 20.4 km/h 62% 0.0 mm
11:59 14.8 °C 7.6 °C 1011.3 hPa North 9.5 km/h 24.1 km/h 62% 0.0 mm
12:04 14.8 °C 7.6 °C 1011.3 hPa NNO 9.5 km/h 15.6 km/h 62% 0.0 mm
12:09 14.8 °C 7.6 °C 1011.1 hPa North 9.5 km/h 14.8 km/h 62% 0.0 mm
12:14 14.8 °C 7.6 °C 1011.1 hPa NNO 8.2 km/h 13 km/h 62% 0.0 mm
12:19 14.8 °C 7.5 °C 1011.1 hPa North 6.9 km/h 16.7 km/h 61.6% 0.0 mm
12:24 14.8 °C 7.4 °C 1010.9 hPa NNO 7.7 km/h 14.8 km/h 61% 0.0 mm
12:29 14.9 °C 7.4 °C 1010.9 hPa NNO 8.4 km/h 14.8 km/h 60.9% 0.0 mm
12:34 14.9 °C 7.4 °C 1010.9 hPa NNO 7.6 km/h 18.5 km/h 60.6% 0.0 mm
12:39 14.9 °C 7.3 °C 1010.5 hPa North 6.9 km/h 13.7 km/h 60.1% 0.0 mm
12:44 14.9 °C 7.2 °C 1010.5 hPa NNO 7.2 km/h 14.8 km/h 60% 0.0 mm
12:49 14.9 °C 7.4 °C 1010.5 hPa NNO 7.6 km/h 13.7 km/h 60.9% 0.0 mm
12:54 14.9 °C 7.3 °C 1010.5 hPa NNO 7.3 km/h 13 km/h 60.1% 0.0 mm
12:59 15.1 °C 7.3 °C 1010.5 hPa North 6.9 km/h 14.8 km/h 60% 0.0 mm
13:04 15.1 °C 7.4 °C 1010.5 hPa NNO 6.9 km/h 14.8 km/h 60% 0.0 mm
13:09 15.2 °C 7.5 °C 1010.3 hPa NO 6.9 km/h 14.8 km/h 60% 0.0 mm
13:14 15.2 °C 7.5 °C 1010.3 hPa NNO 6.4 km/h 14.8 km/h 60% 0.0 mm
13:19 15.2 °C 7.5 °C 1010.3 hPa NO 5.8 km/h 11.9 km/h 60% 0.0 mm
13:24 15.2 °C 7.5 °C 1010.2 hPa NNO 5.4 km/h 7.6 km/h 60% 0.0 mm
13:29 15.2 °C 7.5 °C 1010.2 hPa NO 5 km/h 13 km/h 60% 0.0 mm
13:34 15.1 °C 7.5 °C 1010.2 hPa NO 5 km/h 9.5 km/h 60.2% 0.0 mm
13:39 15.1 °C 7.6 °C 1010.1 hPa NO 5 km/h 7.6 km/h 61% 0.0 mm
13:44 15.1 °C 7.6 °C 1010.1 hPa North 4.4 km/h 10.3 km/h 61% 0.0 mm
13:49 15.2 °C 7.7 °C 1010.1 hPa NNE 3.9 km/h 11.1 km/h 61% 0.0 mm
13:54 15.2 °C 7.5 °C 1009.9 hPa NNO 3.9 km/h 7.4 km/h 60.1% 0.0 mm
13:59 15.3 °C 7.8 °C 1009.9 hPa NO 3.9 km/h 11.1 km/h 60.8% 0.0 mm
14:04 15.3 °C 7.8 °C 1009.9 hPa NO 3.5 km/h 13 km/h 61% 0.0 mm
14:09 15.3 °C 7.8 °C 1009.7 hPa NO 3.2 km/h 13 km/h 61% 0.0 mm
14:14 15.2 °C 7.7 °C 1009.7 hPa NO 5.1 km/h 14.8 km/h 61.3% 0.0 mm
14:19 15 °C 7.9 °C 1009.7 hPa NNE 6.9 km/h 13 km/h 62.6% 0.0 mm
14:24 14.6 °C 8.4 °C 1009.6 hPa NE 7.8 km/h 22.2 km/h 66.1% 0.0 mm
14:29 14 °C 8.7 °C 1009.6 hPa NNE 8.7 km/h 20.4 km/h 70.2% 0.0 mm
14:34 13.7 °C 9 °C 1009.7 hPa NE 8.5 km/h 9.5 km/h 73.1% 0.0 mm
14:39 13.5 °C 9.1 °C 1009.7 hPa NE 8.4 km/h 18.5 km/h 74.6% 0.0 mm
14:44 13.3 °C 9.2 °C 1009.7 hPa ENE 7.4 km/h 13 km/h 76% 0.0 mm
14:49 13.2 °C 9.3 °C 1009.7 hPa ENE 6.4 km/h 13 km/h 77% 0.0 mm
14:54 13.2 °C 9.4 °C 1009.6 hPa NE 6.7 km/h 24.1 km/h 77.5% 0.0 mm
14:59 13.1 °C 9.5 °C 1009.6 hPa NE 6.9 km/h 18.5 km/h 78.8% 0.0 mm
15:04 12.9 °C 9.6 °C 1009.6 hPa NNE 8.3 km/h 13 km/h 80.4% 0.0 mm
15:09 12.8 °C 9.7 °C 1009.6 hPa NNE 9.5 km/h 14.8 km/h 81.6% 0.0 mm
15:14 12.7 °C 9.9 °C 1009.6 hPa NNE 8.2 km/h 9.3 km/h 82.8% 0.0 mm
15:19 12.7 °C 9.9 °C 1009.6 hPa ONO 6.9 km/h 8.4 km/h 83% 0.0 mm
15:24 12.8 °C 10.1 °C 1009.4 hPa Oeste 5.8 km/h 7.4 km/h 83.9% 0.0 mm
15:29 12.8 °C 10.1 °C 1009.4 hPa ONO 4.7 km/h 8.4 km/h 83.9% 0.0 mm
15:34 12.8 °C 10.1 °C 1009.4 hPa NO 4.7 km/h 7.4 km/h 83.5% 0.0 mm
15:39 12.9 °C 10 °C 1009.3 hPa NO 4.7 km/h 7.6 km/h 82.9% 0.0 mm
15:44 12.9 °C 9.9 °C 1009.3 hPa ONO 4.7 km/h 7.6 km/h 82% 0.0 mm
15:49 13.1 °C 10 °C 1009.3 hPa ONO 4.7 km/h 9.5 km/h 81.4% 0.0 mm
15:54 13.2 °C 9.8 °C 1009.3 hPa NO 4.7 km/h 9.3 km/h 79.6% 0.0 mm
15:59 13.4 °C 9.7 °C 1009.3 hPa NNO 4.7 km/h 8.7 km/h 78.2% 0.0 mm
16:04 13.6 °C 9.4 °C 1009.3 hPa North 4.2 km/h 9.3 km/h 76% 0.0 mm
16:09 13.7 °C 9.1 °C 1009.2 hPa NNO 3.9 km/h 14.8 km/h 73.6% 0.0 mm
16:14 13.8 °C 8.9 °C 1009.2 hPa NO 4.4 km/h 9.5 km/h 72.1% 0.0 mm
16:19 14 °C 9 °C 1009.4 hPa NO 5 km/h 11.1 km/h 71.7% 0.0 mm
16:24 14.1 °C 8.8 °C 1009.4 hPa ONO 5.4 km/h 10 km/h 70.5% 0.0 mm
16:29 14.2 °C 8.7 °C 1009.4 hPa NO 5.8 km/h 12.2 km/h 69.7% 0.0 mm
16:34 14.2 °C 8.5 °C 1009.4 hPa NO 6.4 km/h 17.2 km/h 68.3% 0.0 mm
16:39 14.2 °C 8.2 °C 1009.3 hPa NO 6.9 km/h 18.5 km/h 67.2% 0.0 mm
16:44 14.2 °C 8.2 °C 1009.3 hPa NO 8.5 km/h 19.8 km/h 67% 0.0 mm
16:49 14.1 °C 8.1 °C 1009.3 hPa NO 10.3 km/h 20.4 km/h 67% 0.0 mm
16:54 14.1 °C 8.1 °C 1009.3 hPa NO 9.5 km/h 16.4 km/h 67% 0.0 mm
16:59 14.1 °C 8 °C 1009.3 hPa NO 8.7 km/h 19 km/h 66.7% 0.0 mm
17:04 14 °C 7.8 °C 1009.4 hPa NO 8.7 km/h 18.5 km/h 66% 0.0 mm
17:09 14 °C 7.8 °C 1009.4 hPa NO 8.7 km/h 16.7 km/h 66.2% 0.0 mm
17:14 13.9 °C 7.8 °C 1009.4 hPa NO 8.5 km/h 18.5 km/h 66.5% 0.0 mm
17:19 13.8 °C 7.8 °C 1009.4 hPa NO 8.4 km/h 18.5 km/h 66.8% 0.0 mm
17:24 13.8 °C 7.8 °C 1009.4 hPa NO 8.9 km/h 15.6 km/h 67% 0.0 mm
17:29 13.7 °C 7.7 °C 1009.4 hPa NO 9.5 km/h 15.6 km/h 67% 0.0 mm
17:34 13.6 °C 7.6 °C 1009.5 hPa NO 9.5 km/h 18.5 km/h 67% 0.0 mm
17:39 13.6 °C 7.6 °C 1009.5 hPa NO 9.5 km/h 22.2 km/h 67% 0.0 mm
17:44 13.5 °C 7.5 °C 1009.5 hPa NO 9.5 km/h 16.7 km/h 67% 0.0 mm
17:49 13.4 °C 7.6 °C 1009.6 hPa NO 9.5 km/h 16.7 km/h 67.7% 0.0 mm
17:54 13.4 °C 7.6 °C 1009.6 hPa NO 9.1 km/h 16.7 km/h 68% 0.0 mm
17:59 13.4 °C 7.6 °C 1009.6 hPa NNO 8.7 km/h 20.4 km/h 68% 0.0 mm
18:04 13.3 °C 7.6 °C 1009.6 hPa NNO 8.7 km/h 20.4 km/h 68% 0.0 mm
18:09 13.3 °C 7.5 °C 1009.6 hPa NO 8.7 km/h 18.5 km/h 68% 0.0 mm
18:14 13.3 °C 7.5 °C 1009.6 hPa NO 8.5 km/h 20.1 km/h 68.1% 0.0 mm
18:19 13.3 °C 7.6 °C 1009.6 hPa NO 8.4 km/h 20.4 km/h 68.6% 0.0 mm
18:24 13.3 °C 7.7 °C 1009.5 hPa NO 8.4 km/h 14.8 km/h 69% 0.0 mm
18:29 13.3 °C 7.7 °C 1009.5 hPa NO 8.4 km/h 20.4 km/h 69% 0.0 mm
18:34 13.3 °C 7.7 °C 1009.5 hPa NNO 8.9 km/h 20.4 km/h 69% 0.0 mm
18:39 13.2 °C 7.6 °C 1009.5 hPa NO 9.5 km/h 18.5 km/h 69% 0.0 mm
18:44 13.2 °C 7.6 °C 1009.5 hPa NO 8.9 km/h 20.9 km/h 69% 0.0 mm
18:49 13.2 °C 7.6 °C 1009.5 hPa NO 8.4 km/h 16.7 km/h 69% 0.0 mm
18:54 13.2 °C 7.6 °C 1009.4 hPa NO 9.3 km/h 18.5 km/h 69% 0.0 mm
18:59 13.1 °C 7.6 °C 1009.4 hPa NO 10.3 km/h 23.3 km/h 69% 0.0 mm
19:04 13.1 °C 7.6 °C 1009.5 hPa NO 10.3 km/h 24.1 km/h 69% 0.0 mm
19:09 13.1 °C 7.6 °C 1009.5 hPa NO 10.3 km/h 18.5 km/h 69% 0.0 mm
19:14 13.1 °C 7.6 °C 1009.5 hPa NO 10.1 km/h 20.4 km/h 69% 0.0 mm
19:19 13.1 °C 7.6 °C 1009.5 hPa NO 10 km/h 20.4 km/h 69% 0.0 mm
19:24 13.1 °C 7.6 °C 1009.4 hPa NO 10 km/h 19 km/h 69% 0.0 mm
19:29 13.1 °C 7.6 °C 1009.4 hPa NO 10 km/h 18.3 km/h 69% 0.0 mm
19:34 13 °C 7.5 °C 1009.5 hPa NO 10 km/h 20.9 km/h 69% 0.0 mm
19:39 13 °C 7.4 °C 1009.5 hPa NO 10 km/h 19 km/h 69% 0.0 mm
19:44 12.9 °C 7.3 °C 1009.5 hPa NO 10.1 km/h 16.7 km/h 69% 0.0 mm
19:49 12.9 °C 7.3 °C 1009.5 hPa NO 10.3 km/h 16.7 km/h 69% 0.0 mm
19:54 12.9 °C 7.3 °C 1009.5 hPa NO 9.5 km/h 14.8 km/h 69% 0.0 mm
19:59 12.9 °C 7.4 °C 1009.5 hPa NO 8.7 km/h 15.6 km/h 69.5% 0.0 mm
20:04 12.9 °C 7.5 °C 1009.4 hPa NO 8.7 km/h 15.6 km/h 70% 0.0 mm
20:09 12.8 °C 7.5 °C 1009.4 hPa NO 8.7 km/h 16.7 km/h 70% 0.0 mm
20:14 12.8 °C 7.4 °C 1009.4 hPa NO 8.7 km/h 14.8 km/h 70% 0.0 mm
20:19 12.8 °C 7.4 °C 1009.4 hPa NO 8.7 km/h 14.8 km/h 70% 0.0 mm
20:24 12.8 °C 7.4 °C 1009.4 hPa NO 8.5 km/h 13 km/h 70% 0.0 mm
20:29 12.8 °C 7.4 °C 1009.4 hPa NO 8.4 km/h 16.1 km/h 70% 0.0 mm
20:34 12.8 °C 7.4 °C 1009.4 hPa NO 8.4 km/h 16.7 km/h 70% 0.0 mm
20:39 12.7 °C 7.4 °C 1009.4 hPa NO 8.4 km/h 18.5 km/h 70% 0.0 mm
20:44 12.7 °C 7.4 °C 1009.4 hPa NO 8.5 km/h 15.6 km/h 70% 0.0 mm
20:49 12.7 °C 7.4 °C 1009.4 hPa NO 8.7 km/h 16.7 km/h 70% 0.0 mm
20:54 12.7 °C 7.4 °C 1009.4 hPa ONO 8.7 km/h 13.7 km/h 70% 0.0 mm
20:59 12.7 °C 7.4 °C 1009.4 hPa NO 8.7 km/h 13 km/h 70% 0.0 mm
Murcia-Puente Tocinos, España
Compliments of Weather Underground - 3 mb

La estación de MeteoMurcia.com, publica sus datos en los siguientes proyectos:

Weather Underground PWS IMURCIAP2 Meteoclimatic www.awekas.at

Web Analytics

Clicky